createdAt,value
2023-06-29T00:01:57.977Z,3.13
2023-06-29T00:04:26.899Z,3.05
2023-06-29T00:06:56.300Z,2.90
2023-06-29T00:09:23.512Z,3.53
2023-06-29T00:11:50.082Z,4.28
2023-06-29T00:14:16.719Z,3.80
2023-06-29T00:16:43.196Z,4.05
2023-06-29T00:19:09.746Z,4.18
2023-06-29T00:21:36.190Z,5.20
2023-06-29T00:24:03.676Z,5.55
2023-06-29T00:26:31.385Z,4.43
2023-06-29T00:28:58.246Z,5.15
2023-06-29T00:31:25.606Z,4.53
2023-06-29T00:33:52.334Z,3.30
2023-06-29T00:36:19.266Z,3.40
2023-06-29T00:38:45.736Z,4.30
2023-06-29T00:41:12.149Z,3.92
2023-06-29T00:43:38.594Z,3.88
2023-06-29T00:46:09.042Z,4.00
2023-06-29T00:48:39.682Z,4.10
2023-06-29T00:51:06.551Z,3.00
2023-06-29T00:53:33.212Z,3.53
2023-06-29T00:56:03.233Z,4.05
2023-06-29T00:58:30.327Z,4.80
2023-06-29T01:00:59.700Z,5.13
2023-06-29T01:03:26.567Z,5.43
2023-06-29T01:05:57.295Z,5.53
2023-06-29T01:08:30.055Z,6.15
2023-06-29T01:10:58.432Z,5.80
2023-06-29T01:13:27.012Z,5.80
2023-06-29T01:15:54.124Z,6.40
2023-06-29T01:18:21.075Z,6.25
2023-06-29T01:20:50.494Z,7.10
2023-06-29T01:23:26.188Z,7.45
2023-06-29T01:25:57.328Z,7.43
2023-06-29T01:28:23.787Z,7.57
2023-06-29T01:30:50.564Z,7.07
2023-06-29T01:33:19.472Z,8.25
2023-06-29T01:35:46.363Z,8.02
2023-06-29T01:38:27.417Z,7.13
2023-06-29T01:40:56.992Z,7.45
2023-06-29T01:43:25.907Z,7.70
2023-06-29T01:45:52.948Z,7.80
2023-06-29T01:48:19.681Z,7.90
2023-06-29T01:50:46.547Z,9.02
2023-06-29T01:53:12.993Z,8.43
2023-06-29T01:55:39.501Z,8.15
2023-06-29T01:58:05.952Z,9.40
2023-06-29T02:00:32.406Z,9.13
2023-06-29T02:02:58.961Z,9.02
2023-06-29T02:05:25.710Z,8.05
2023-06-29T02:07:52.527Z,8.75
2023-06-29T02:10:18.960Z,8.13
2023-06-29T02:12:45.447Z,9.77
2023-06-29T02:15:11.987Z,9.60
2023-06-29T02:17:38.815Z,8.90
2023-06-29T02:20:06.717Z,9.30
2023-06-29T02:22:33.225Z,8.20
2023-06-29T02:24:59.718Z,8.90
2023-06-29T02:27:26.174Z,8.90
2023-06-29T02:29:52.606Z,8.55
2023-06-29T02:32:19.076Z,10.63
2023-06-29T02:34:45.629Z,11.45
2023-06-29T02:37:12.089Z,10.68
2023-06-29T02:39:38.531Z,11.10
2023-06-29T02:42:05.166Z,11.02
2023-06-29T02:44:31.638Z,10.88
2023-06-29T02:46:59.626Z,11.27
2023-06-29T02:49:26.146Z,13.38
2023-06-29T02:51:52.578Z,11.65
2023-06-29T02:54:19.026Z,11.85
2023-06-29T02:56:45.487Z,11.95
2023-06-29T02:59:12.054Z,12.82
2023-06-29T03:01:38.528Z,12.55
2023-06-29T03:04:05.046Z,13.68
2023-06-29T03:06:31.473Z,15.80
2023-06-29T03:08:57.942Z,13.40
2023-06-29T03:11:24.620Z,13.55
2023-06-29T03:13:52.193Z,14.90
2023-06-29T03:16:18.745Z,14.40
2023-06-29T03:18:45.225Z,15.15
2023-06-29T03:21:18.018Z,13.63
2023-06-29T03:23:45.367Z,13.98
2023-06-29T03:26:11.792Z,13.82
2023-06-29T03:28:38.444Z,13.55
2023-06-29T03:31:04.931Z,14.35
2023-06-29T03:33:31.408Z,12.82
2023-06-29T03:35:57.865Z,13.82
2023-06-29T03:38:24.373Z,13.75
2023-06-29T03:40:51.017Z,13.80
2023-06-29T03:43:17.487Z,14.27
2023-06-29T03:45:44.314Z,13.60
2023-06-29T03:48:11.168Z,14.00
2023-06-29T03:50:37.682Z,13.45
2023-06-29T03:53:04.350Z,14.27
2023-06-29T03:55:30.882Z,14.68
2023-06-29T03:57:58.902Z,14.65
2023-06-29T04:00:25.512Z,14.13
2023-06-29T04:02:52.203Z,14.93
2023-06-29T04:05:18.717Z,13.60
2023-06-29T04:07:45.197Z,13.15
2023-06-29T04:10:11.683Z,13.88
2023-06-29T04:12:39.756Z,14.52
2023-06-29T04:15:06.834Z,14.85
2023-06-29T04:17:33.406Z,14.68
2023-06-29T04:19:59.952Z,14.40
2023-06-29T04:22:26.446Z,13.77
2023-06-29T04:24:52.892Z,14.68
2023-06-29T04:27:19.416Z,14.45
2023-06-29T04:29:45.929Z,16.75
2023-06-29T04:32:12.445Z,15.95
2023-06-29T04:34:38.889Z,16.75
2023-06-29T04:37:05.790Z,17.42
2023-06-29T04:39:32.296Z,16.95
2023-06-29T04:42:06.173Z,17.90
2023-06-29T04:44:35.292Z,17.88
2023-06-29T04:47:03.601Z,17.75
2023-06-29T04:49:38.407Z,19.55
2023-06-29T04:52:06.215Z,16.98
2023-06-29T04:54:33.313Z,17.30
2023-06-29T04:57:00.595Z,16.42
2023-06-29T04:59:28.228Z,16.92
2023-06-29T05:01:54.822Z,18.40
2023-06-29T05:04:21.484Z,16.30
2023-06-29T05:06:47.972Z,16.23
2023-06-29T05:09:14.572Z,17.55
2023-06-29T05:11:41.041Z,16.83
2023-06-29T05:14:07.523Z,18.55
2023-06-29T05:16:34.022Z,17.63
2023-06-29T05:19:00.657Z,17.85
2023-06-29T05:21:29.142Z,18.65
2023-06-29T05:23:55.836Z,17.80
2023-06-29T05:26:22.272Z,15.13
2023-06-29T05:31:22.529Z,18.33
2023-06-29T05:33:48.985Z,17.38
2023-06-29T05:36:15.513Z,19.52
2023-06-29T05:38:41.975Z,18.85
2023-06-29T05:41:08.496Z,19.02
2023-06-29T05:43:35.021Z,18.20
2023-06-29T05:46:01.509Z,17.10
2023-06-29T05:48:28.043Z,17.58
2023-06-29T05:50:54.599Z,18.77
2023-06-29T05:53:21.043Z,18.77
2023-06-29T05:55:48.222Z,18.20
2023-06-29T05:58:14.646Z,15.95
2023-06-29T06:00:41.210Z,18.55
2023-06-29T06:03:07.969Z,17.48
2023-06-29T06:05:34.551Z,17.13
2023-06-29T06:08:02.064Z,18.85
2023-06-29T06:10:28.536Z,17.38
2023-06-29T06:12:55.228Z,18.33
2023-06-29T06:15:21.678Z,17.25
2023-06-29T06:17:49.565Z,18.45
2023-06-29T06:20:16.110Z,18.48
2023-06-29T06:22:42.606Z,17.85
2023-06-29T06:25:09.847Z,18.48
2023-06-29T06:27:36.304Z,17.42
2023-06-29T06:30:05.822Z,18.65
2023-06-29T06:32:32.583Z,17.58
2023-06-29T06:34:59.014Z,18.38
2023-06-29T06:37:25.605Z,18.48
2023-06-29T06:39:52.043Z,17.90
2023-06-29T06:42:18.546Z,17.05
2023-06-29T06:44:56.827Z,18.50
2023-06-29T06:47:23.524Z,17.33
2023-06-29T06:49:49.980Z,17.83
2023-06-29T06:52:16.413Z,17.35
2023-06-29T06:54:42.922Z,16.27
2023-06-29T06:57:09.482Z,15.60
2023-06-29T06:59:35.938Z,17.38
2023-06-29T07:02:02.438Z,17.95
2023-06-29T07:04:29.025Z,18.15
2023-06-29T07:06:55.589Z,17.70
2023-06-29T07:09:22.061Z,17.80
2023-06-29T07:11:48.528Z,16.35
2023-06-29T07:14:19.197Z,16.45
2023-06-29T07:16:47.285Z,15.93
2023-06-29T07:24:05.900Z,16.48
2023-06-29T07:24:31.228Z,15.88
2023-06-29T07:26:57.688Z,17.25
2023-06-29T07:29:24.152Z,16.67
2023-06-29T07:31:50.720Z,16.83
2023-06-29T07:34:17.243Z,17.05
2023-06-29T07:36:43.815Z,15.93
2023-06-29T07:39:10.315Z,16.73
2023-06-29T07:41:36.812Z,15.45
2023-06-29T07:44:03.461Z,16.60
2023-06-29T07:46:32.749Z,17.48
2023-06-29T07:49:00.231Z,15.73
2023-06-29T07:51:33.002Z,14.52
2023-06-29T07:54:01.870Z,15.93
2023-06-29T07:58:39.128Z,17.27
2023-06-29T07:59:16.038Z,17.65
2023-06-29T08:01:42.543Z,17.45
2023-06-29T08:04:09.546Z,17.75
2023-06-29T08:06:49.880Z,17.25
2023-06-29T08:09:18.066Z,16.33
2023-06-29T08:11:44.542Z,16.58
2023-06-29T08:14:11.028Z,18.35
2023-06-29T08:16:37.544Z,18.10
2023-06-29T08:19:04.341Z,16.38
2023-06-29T08:21:30.909Z,17.50
2023-06-29T08:23:57.450Z,18.85
2023-06-29T08:26:26.104Z,17.42
2023-06-29T08:28:52.734Z,15.52
2023-06-29T08:31:20.456Z,17.40
2023-06-29T08:33:47.502Z,14.60
2023-06-29T08:36:13.982Z,14.88
2023-06-29T08:38:40.415Z,16.17
2023-06-29T08:41:07.125Z,16.98
2023-06-29T08:43:34.024Z,16.17
2023-06-29T08:46:02.815Z,14.25
2023-06-29T08:48:32.604Z,14.13
2023-06-29T08:53:34.906Z,13.23
2023-06-29T08:56:02.539Z,13.80
2023-06-29T08:58:29.863Z,13.40
2023-06-29T09:00:57.269Z,14.23
2023-06-29T09:03:26.283Z,12.65
2023-06-29T09:05:56.810Z,13.35
2023-06-29T09:08:27.491Z,12.05
2023-06-29T09:10:54.633Z,14.32
2023-06-29T09:13:21.070Z,12.38
2023-06-29T09:15:49.608Z,13.38
2023-06-29T09:18:16.167Z,11.85
2023-06-29T09:20:43.029Z,12.48
2023-06-29T09:23:12.038Z,12.48
2023-06-29T09:25:39.966Z,12.00
2023-06-29T09:28:08.165Z,12.40
2023-06-29T09:30:39.675Z,12.05
2023-06-29T09:33:10.926Z,13.18
2023-06-29T09:35:44.518Z,11.38
2023-06-29T09:38:11.271Z,11.30
2023-06-29T09:40:52.207Z,13.68
2023-06-29T09:43:21.744Z,12.30
2023-06-29T09:45:48.835Z,11.00
2023-06-29T09:53:34.511Z,13.15
2023-06-29T09:56:03.205Z,11.63
2023-06-29T09:58:31.161Z,11.45
2023-06-29T10:01:01.318Z,12.45
2023-06-29T10:03:28.803Z,12.55
2023-06-29T10:05:58.438Z,12.07
2023-06-29T10:08:28.323Z,11.90
2023-06-29T10:11:03.541Z,11.90
2023-06-29T10:13:34.273Z,13.57
2023-06-29T10:16:03.888Z,13.20
2023-06-29T10:20:59.977Z,12.65
2023-06-29T10:23:27.286Z,12.48
2023-06-29T10:25:54.367Z,12.07
2023-06-29T10:28:22.393Z,13.65
2023-06-29T10:30:51.853Z,12.60
2023-06-29T10:33:22.580Z,13.30
2023-06-29T10:35:56.163Z,13.38
2023-06-29T10:38:31.108Z,12.52
2023-06-29T10:40:57.757Z,13.70
2023-06-29T10:43:29.299Z,12.25
2023-06-29T10:45:55.856Z,13.25
2023-06-29T10:48:31.348Z,13.10
2023-06-29T10:51:09.873Z,12.48
2023-06-29T10:53:36.451Z,13.00
2023-06-29T10:56:02.953Z,12.75
2023-06-29T10:58:37.452Z,13.00
2023-06-29T11:01:03.885Z,13.13
2023-06-29T11:03:30.491Z,12.38
2023-06-29T11:05:58.202Z,11.32
2023-06-29T11:08:25.556Z,12.00
2023-06-29T11:10:52.849Z,10.73
2023-06-29T11:13:20.980Z,10.57
2023-06-29T11:15:56.153Z,10.93
2023-06-29T11:18:23.754Z,10.20
2023-06-29T11:20:50.497Z,10.18
2023-06-29T11:23:18.117Z,10.07
2023-06-29T11:25:44.980Z,11.15
2023-06-29T11:28:16.002Z,11.85
2023-06-29T11:30:43.110Z,11.82
2023-06-29T11:33:24.332Z,11.98
2023-06-29T11:35:56.041Z,10.65
2023-06-29T11:38:22.587Z,10.88
2023-06-29T11:40:49.029Z,10.30
2023-06-29T11:43:16.035Z,10.88
2023-06-29T11:45:42.548Z,11.20
2023-06-29T11:48:09.220Z,10.02
2023-06-29T11:50:38.143Z,11.18
2023-06-29T11:53:04.952Z,10.45
2023-06-29T11:55:31.441Z,11.35
2023-06-29T11:57:57.894Z,11.15
2023-06-29T12:00:31.815Z,11.52
2023-06-29T12:03:06.066Z,11.13
2023-06-29T12:05:32.633Z,11.35
2023-06-29T12:08:06.180Z,11.70
2023-06-29T12:10:37.079Z,11.63
2023-06-29T12:13:04.192Z,11.57
2023-06-29T12:15:33.937Z,12.00
2023-06-29T12:18:13.409Z,12.77
2023-06-29T12:20:42.895Z,11.70
2023-06-29T12:23:13.873Z,12.52
2023-06-29T12:25:46.592Z,11.88
2023-06-29T12:28:13.777Z,12.52
2023-06-29T12:30:41.273Z,14.13
2023-06-29T12:33:09.278Z,12.75
2023-06-29T12:35:35.824Z,13.10
2023-06-29T12:38:03.057Z,15.32
2023-06-29T12:40:31.971Z,14.15
2023-06-29T12:43:00.208Z,15.02
2023-06-29T12:45:27.424Z,15.23
2023-06-29T12:47:53.965Z,13.90
2023-06-29T12:50:20.536Z,15.82
2023-06-29T12:52:48.297Z,13.82
2023-06-29T12:55:16.070Z,14.13
2023-06-29T12:57:44.462Z,15.20
2023-06-29T13:00:12.971Z,15.68
2023-06-29T13:02:39.601Z,14.82
2023-06-29T13:05:06.437Z,15.95
2023-06-29T13:07:32.977Z,14.93
2023-06-29T13:10:00.366Z,16.40
2023-06-29T13:12:27.688Z,15.45
2023-06-29T13:14:54.189Z,15.90
2023-06-29T13:17:21.096Z,15.23
2023-06-29T13:19:48.789Z,13.88
2023-06-29T13:22:15.626Z,14.10
2023-06-29T13:24:42.069Z,13.48
2023-06-29T13:27:08.535Z,13.73
2023-06-29T13:29:36.258Z,14.35
2023-06-29T13:32:03.347Z,14.40
2023-06-29T13:34:31.485Z,14.77
2023-06-29T13:36:59.236Z,14.85
2023-06-29T13:39:25.737Z,14.77
2023-06-29T13:41:52.187Z,13.88
2023-06-29T13:44:18.757Z,14.93
2023-06-29T13:46:47.038Z,15.77
2023-06-29T13:49:13.845Z,13.43
2023-06-29T13:51:40.270Z,15.63
2023-06-29T13:54:06.999Z,14.98
2023-06-29T13:56:39.080Z,14.95
2023-06-29T13:59:10.467Z,15.98
2023-06-29T14:01:39.348Z,15.70
2023-06-29T14:04:07.600Z,17.25
2023-06-29T14:06:37.052Z,17.65
2023-06-29T14:09:06.069Z,16.60
2023-06-29T14:11:32.962Z,16.17
2023-06-29T14:13:59.663Z,16.95
2023-06-29T14:16:26.969Z,16.02
2023-06-29T14:18:53.815Z,16.77
2023-06-29T14:21:21.250Z,17.35
2023-06-29T14:23:48.102Z,17.98
2023-06-29T14:26:15.296Z,16.25
2023-06-29T14:28:42.429Z,17.08
2023-06-29T14:31:09.261Z,16.40
2023-06-29T14:33:36.180Z,17.90
2023-06-29T14:36:06.486Z,15.90
2023-06-29T14:38:33.312Z,16.52
2023-06-29T14:41:00.022Z,17.55
2023-06-29T14:43:26.504Z,17.88
2023-06-29T14:45:54.222Z,17.67
2023-06-29T14:48:20.785Z,15.90
2023-06-29T14:50:48.029Z,17.85
2023-06-29T14:53:16.646Z,17.85
2023-06-29T14:55:44.694Z,18.00
2023-06-29T14:58:12.063Z,17.08
2023-06-29T15:00:38.540Z,15.68
2023-06-29T15:03:05.962Z,16.77
2023-06-29T15:05:32.673Z,15.52
2023-06-29T15:07:59.165Z,15.52
2023-06-29T15:10:25.602Z,16.08
2023-06-29T15:12:52.236Z,15.55
2023-06-29T15:15:18.975Z,14.27
2023-06-29T15:17:45.509Z,14.25
2023-06-29T15:20:12.416Z,14.70
2023-06-29T15:22:38.952Z,15.35
2023-06-29T15:25:06.150Z,16.27
2023-06-29T15:27:32.629Z,15.80
2023-06-29T15:30:01.582Z,16.58
2023-06-29T15:32:28.495Z,16.77
2023-06-29T15:34:55.263Z,16.77
2023-06-29T15:37:21.975Z,17.23
2023-06-29T15:39:48.490Z,16.67
2023-06-29T15:42:16.355Z,16.92
2023-06-29T15:44:43.228Z,16.88
2023-06-29T15:47:09.724Z,17.05
2023-06-29T15:49:36.905Z,16.23
2023-06-29T15:52:04.176Z,15.95
2023-06-29T15:54:30.628Z,15.95
2023-06-29T15:56:57.114Z,14.38
2023-06-29T15:59:23.579Z,13.70
2023-06-29T16:01:50.066Z,13.73
2023-06-29T16:04:17.546Z,13.77
2023-06-29T16:06:46.445Z,14.10
2023-06-29T16:09:13.026Z,14.23
2023-06-29T16:11:39.551Z,14.02
2023-06-29T16:14:06.054Z,15.52
2023-06-29T16:16:32.624Z,16.10
2023-06-29T16:18:59.091Z,14.45
2023-06-29T16:21:25.568Z,15.20
2023-06-29T16:23:52.069Z,15.02
2023-06-29T16:26:18.562Z,15.60
2023-06-29T16:28:45.301Z,14.68
2023-06-29T16:31:11.916Z,14.77
2023-06-29T16:33:38.544Z,14.52
2023-06-29T16:36:05.165Z,15.57
2023-06-29T16:38:31.698Z,14.18
2023-06-29T16:40:58.214Z,14.40
2023-06-29T16:43:24.676Z,15.43
2023-06-29T16:45:51.181Z,14.55
2023-06-29T16:48:17.726Z,15.13
2023-06-29T16:50:44.422Z,16.13
2023-06-29T16:53:11.050Z,14.55
2023-06-29T16:55:37.486Z,14.73
2023-06-29T16:58:04.062Z,14.93
2023-06-29T17:00:30.716Z,15.68
2023-06-29T17:02:57.462Z,15.77
2023-06-29T17:05:24.062Z,15.02
2023-06-29T17:07:50.544Z,14.60
2023-06-29T17:10:17.001Z,14.20
2023-06-29T17:12:43.544Z,16.13
2023-06-29T17:15:10.758Z,14.90
2023-06-29T17:17:37.307Z,15.32
2023-06-29T17:20:04.198Z,15.48
2023-06-29T17:22:30.785Z,15.95
2023-06-29T17:24:57.209Z,14.35
2023-06-29T17:27:23.701Z,15.57
2023-06-29T17:29:50.184Z,15.35
2023-06-29T17:32:16.867Z,14.57
2023-06-29T17:34:43.361Z,15.43
2023-06-29T17:37:10.568Z,14.77
2023-06-29T17:39:37.188Z,17.15
2023-06-29T17:42:03.934Z,17.70
2023-06-29T17:44:30.549Z,20.35
2023-06-29T17:46:57.255Z,20.85
2023-06-29T17:49:27.857Z,20.48
2023-06-29T17:51:55.016Z,21.48
2023-06-29T17:54:21.552Z,22.80
2023-06-29T17:56:48.041Z,23.85
2023-06-29T17:59:14.513Z,23.33
2023-06-29T18:01:41.004Z,22.77
2023-06-29T18:04:07.949Z,23.10
2023-06-29T18:06:34.523Z,23.42
2023-06-29T18:09:01.019Z,22.95
2023-06-29T18:11:28.697Z,22.83
2023-06-29T18:13:55.194Z,24.02
2023-06-29T18:16:21.816Z,22.58
2023-06-29T18:18:48.326Z,23.67
2023-06-29T18:21:14.971Z,22.38
2023-06-29T18:23:41.576Z,22.95
2023-06-29T18:26:08.414Z,22.45
2023-06-29T18:28:34.864Z,23.35
2023-06-29T18:31:01.433Z,22.95
2023-06-29T18:33:29.695Z,22.80
2023-06-29T18:35:56.182Z,23.67
2023-06-29T18:38:23.277Z,23.20
2023-06-29T18:40:49.797Z,22.65
2023-06-29T18:43:16.249Z,22.60
2023-06-29T18:45:42.882Z,23.25
2023-06-29T18:48:09.438Z,22.33
2023-06-29T18:50:36.696Z,22.50
2023-06-29T18:53:03.267Z,22.20
2023-06-29T18:55:35.030Z,22.73
2023-06-29T18:58:01.571Z,21.17
2023-06-29T19:00:28.051Z,21.92
2023-06-29T19:02:54.574Z,20.65
2023-06-29T19:05:21.108Z,20.35
2023-06-29T19:07:48.238Z,19.88
2023-06-29T19:10:14.903Z,19.73
2023-06-29T19:12:41.648Z,20.98
2023-06-29T19:15:10.363Z,20.23
2023-06-29T19:17:36.857Z,21.45
2023-06-29T19:20:03.690Z,19.80
2023-06-29T19:22:30.117Z,21.42
2023-06-29T19:24:56.748Z,21.48
2023-06-29T19:27:23.229Z,20.90
2023-06-29T19:29:49.710Z,20.33
2023-06-29T19:32:16.191Z,20.35
2023-06-29T19:34:42.814Z,19.92
2023-06-29T19:37:10.734Z,19.80
2023-06-29T19:39:37.249Z,20.90
2023-06-29T19:42:05.059Z,21.83
2023-06-29T19:44:31.523Z,21.83
2023-06-29T19:46:57.971Z,22.30
2023-06-29T19:49:24.442Z,23.75
2023-06-29T19:51:57.890Z,23.42
2023-06-29T19:54:24.618Z,19.83
2023-06-29T19:56:51.106Z,19.45
2023-06-29T19:59:17.558Z,16.45
2023-06-29T20:01:44.047Z,17.17
2023-06-29T20:04:10.527Z,16.50
2023-06-29T20:06:37.096Z,16.33
2023-06-29T20:09:05.061Z,17.02
2023-06-29T20:11:31.714Z,16.20
2023-06-29T20:13:58.207Z,17.42
2023-06-29T20:16:24.743Z,16.27
2023-06-29T20:18:52.182Z,16.88
2023-06-29T20:21:18.779Z,17.45
2023-06-29T20:23:51.197Z,17.27
2023-06-29T20:26:18.881Z,18.00
2023-06-29T20:28:45.749Z,17.20
2023-06-29T20:31:12.208Z,16.80
2023-06-29T20:33:38.718Z,17.83
2023-06-29T20:36:05.327Z,16.60
2023-06-29T20:38:31.792Z,16.65
2023-06-29T20:40:58.265Z,16.30
2023-06-29T20:43:24.822Z,17.48
2023-06-29T20:45:52.379Z,17.00
2023-06-29T20:48:19.206Z,16.60
2023-06-29T20:50:45.616Z,15.90
2023-06-29T20:53:12.126Z,17.48
2023-06-29T20:55:38.555Z,17.13
2023-06-29T20:58:05.370Z,17.15
2023-06-29T21:00:33.811Z,17.27
2023-06-29T21:03:00.240Z,17.90
2023-06-29T21:05:27.269Z,17.42
2023-06-29T21:07:54.048Z,18.15
2023-06-29T21:10:20.675Z,17.98
2023-06-29T21:12:47.681Z,18.27
2023-06-29T21:15:14.524Z,19.33
2023-06-29T21:17:41.284Z,18.55
2023-06-29T21:20:09.054Z,19.08
2023-06-29T21:22:36.600Z,19.35
2023-06-29T21:25:03.874Z,18.67
2023-06-29T21:27:31.796Z,19.52
2023-06-29T21:29:58.564Z,20.10
2023-06-29T21:32:25.334Z,19.27
2023-06-29T21:34:52.065Z,19.08
2023-06-29T21:37:20.892Z,19.77
2023-06-29T21:39:47.376Z,20.08
2023-06-29T21:42:14.165Z,20.70
2023-06-29T21:44:40.680Z,20.23
2023-06-29T21:47:07.353Z,20.40
2023-06-29T21:49:33.992Z,19.67
2023-06-29T21:52:00.433Z,19.92
2023-06-29T21:54:27.203Z,18.98
2023-06-29T21:56:53.685Z,19.42
2023-06-29T21:59:20.110Z,19.92
2023-06-29T22:01:46.616Z,19.85
2023-06-29T22:04:13.542Z,20.00
2023-06-29T22:06:40.968Z,16.23
2023-06-29T22:09:07.736Z,12.52
2023-06-29T22:11:34.177Z,7.47
2023-06-29T22:14:00.972Z,5.72
2023-06-29T22:16:29.314Z,4.90
2023-06-29T22:18:56.807Z,4.38
2023-06-29T22:21:25.177Z,3.60
2023-06-29T22:23:52.595Z,3.35
2023-06-29T22:26:19.262Z,3.05
2023-06-29T22:28:46.131Z,3.05
2023-06-29T22:31:15.030Z,2.97
2023-06-29T22:33:41.578Z,2.78
2023-06-29T22:36:08.128Z,3.03
2023-06-29T22:38:34.770Z,2.83
2023-06-29T22:41:01.276Z,2.67
2023-06-29T22:43:30.757Z,3.10
2023-06-29T22:45:57.380Z,2.83
2023-06-29T22:48:23.878Z,2.92
2023-06-29T22:50:50.389Z,2.72
2023-06-29T22:53:16.830Z,2.42
2023-06-29T22:55:44.308Z,1.95
2023-06-29T22:58:10.931Z,2.30
2023-06-29T23:00:37.901Z,2.20
2023-06-29T23:03:04.466Z,1.95
2023-06-29T23:05:30.984Z,1.80
2023-06-29T23:07:58.514Z,2.33
2023-06-29T23:10:28.128Z,1.50
2023-06-29T23:12:54.649Z,1.95
2023-06-29T23:15:26.824Z,1.80
2023-06-29T23:17:54.670Z,1.98
2023-06-29T23:20:21.168Z,1.90
2023-06-29T23:22:47.889Z,1.75
2023-06-29T23:25:14.725Z,2.03
2023-06-29T23:27:44.622Z,1.63
2023-06-29T23:30:16.521Z,1.88
2023-06-29T23:32:46.028Z,2.80
2023-06-29T23:35:12.593Z,1.67
2023-06-29T23:37:39.427Z,1.60
2023-06-29T23:40:11.377Z,1.80
2023-06-29T23:42:38.605Z,1.70
2023-06-29T23:45:07.565Z,1.63
2023-06-29T23:47:34.018Z,1.60
2023-06-29T23:50:00.736Z,2.05
2023-06-29T23:52:27.193Z,1.80
2023-06-29T23:54:54.741Z,1.67
2023-06-29T23:57:21.437Z,1.55
2023-06-29T23:59:47.975Z,1.70
